Time;durP1;ratioP1;P1;durP2;ratioP2;P2;SDS_P1;SDS_P2;PMS_P1;PMS_P2;Temp;Humidity;BMP_temperature;BMP_pressure;BME280_temperature;BME280_humidity;BME280_pressure;Samples;Min_cycle;Max_cycle;Signal;HPM_P1;HPM_P2
2022/03/25 00:01:11;;;;;;;27.33;20.45;;;8.20;99.90;;;;;;5003879;28;20421;-59
2022/03/25 00:03:39;;;;;;;27.80;20.33;;;8.10;99.90;;;;;;5005414;28;20042;-59
2022/03/25 00:06:06;;;;;;;29.48;20.92;;;8.00;99.90;;;;;;5003608;28;20045;-59
2022/03/25 00:08:33;;;;;;;29.02;20.55;;;8.00;99.90;;;;;;5021563;28;20076;-59
2022/03/25 00:11:00;;;;;;;31.30;21.23;;;7.90;99.90;;;;;;5022844;28;20089;-59
2022/03/25 00:13:27;;;;;;;26.13;18.80;;;7.90;99.90;;;;;;5022253;28;20107;-59
2022/03/25 00:15:54;;;;;;;27.67;20.77;;;7.90;99.90;;;;;;5022384;28;20121;-59
2022/03/25 00:18:21;;;;;;;27.95;20.38;;;7.90;99.90;;;;;;5022043;28;20085;-59
2022/03/25 00:20:49;;;;;;;28.15;21.10;;;7.80;99.90;;;;;;5020679;28;20440;-59
2022/03/25 00:23:16;;;;;;;33.25;21.33;;;7.80;99.90;;;;;;5004424;28;20099;-59
2022/03/25 00:25:42;;;;;;;29.65;21.80;;;7.70;99.90;;;;;;5002426;28;20078;-59
2022/03/25 00:28:10;;;;;;;28.60;21.05;;;7.70;99.90;;;;;;5038256;28;20184;-59
2022/03/25 00:30:36;;;;;;;29.05;20.17;;;7.70;99.90;;;;;;5021012;28;20073;-59
2022/03/25 00:33:04;;;;;;;28.08;20.33;;;7.70;99.90;;;;;;5022662;28;20050;-59
2022/03/25 00:35:31;;;;;;;27.65;19.80;;;7.60;99.90;;;;;;5020126;28;20164;-59
2022/03/25 00:37:58;;;;;;;28.17;19.75;;;7.60;99.90;;;;;;5022547;28;20128;-59
2022/03/25 00:40:25;;;;;;;25.98;20.35;;;7.60;99.90;;;;;;5016066;28;20662;-59
2022/03/25 00:42:52;;;;;;;29.52;19.95;;;7.50;99.90;;;;;;5002266;28;20609;-59
2022/03/25 00:45:19;;;;;;;28.23;20.45;;;7.50;99.90;;;;;;5002736;28;20525;-59
2022/03/25 00:47:46;;;;;;;28.60;20.40;;;7.50;99.90;;;;;;5004383;28;20160;-59
2022/03/25 00:50:13;;;;;;;28.08;21.55;;;7.50;99.90;;;;;;5011833;28;20456;-59
2022/03/25 00:52:45;;;;;;;28.15;20.00;;;7.50;99.90;;;;;;5003780;28;20565;-60
2022/03/25 00:55:12;;;;;;;29.17;19.92;;;7.40;99.90;;;;;;5003483;28;20157;-58
2022/03/25 00:57:39;;;;;;;27.13;18.92;;;7.40;99.90;;;;;;5022168;28;20072;-59
2022/03/25 01:00:06;;;;;;;27.20;20.00;;;7.30;99.90;;;;;;5019298;28;20129;-59
2022/03/25 01:02:34;;;;;;;30.67;20.73;;;7.20;99.90;;;;;;5022160;28;20049;-59
2022/03/25 01:05:01;;;;;;;29.30;20.83;;;7.20;99.90;;;;;;5021185;28;20084;-59
2022/03/25 01:07:28;;;;;;;28.92;20.75;;;7.20;99.90;;;;;;5022109;28;20107;-59
2022/03/25 01:09:54;;;;;;;29.05;20.40;;;7.10;99.90;;;;;;5021823;28;20706;-59
2022/03/25 01:12:21;;;;;;;30.65;21.13;;;7.00;99.90;;;;;;5020849;28;20128;-59
2022/03/25 01:14:48;;;;;;;27.58;20.63;;;7.00;99.90;;;;;;5020766;28;20055;-59
2022/03/25 01:17:16;;;;;;;28.52;20.13;;;7.00;99.90;;;;;;5021256;28;20085;-59
2022/03/25 01:19:44;;;;;;;29.20;20.10;;;6.90;99.90;;;;;;5021113;28;20045;-59
2022/03/25 01:22:11;;;;;;;31.52;20.58;;;6.80;99.90;;;;;;5020169;28;20144;-59
2022/03/25 01:24:38;;;;;;;31.45;21.55;;;6.70;99.90;;;;;;5021588;28;20085;-59
2022/03/25 01:27:05;;;;;;;29.63;21.73;;;6.70;99.90;;;;;;5021014;28;20146;-59
2022/03/25 01:29:31;;;;;;;29.77;21.25;;;6.70;99.90;;;;;;5021260;28;20159;-59
2022/03/25 01:31:59;;;;;;;25.83;19.55;;;6.70;99.90;;;;;;5020042;28;20432;-59
2022/03/25 01:34:26;;;;;;;26.63;19.13;;;6.70;99.90;;;;;;5021169;28;20049;-58
2022/03/25 01:36:53;;;;;;;28.08;19.50;;;6.70;99.90;;;;;;5020873;28;20454;-59
2022/03/25 01:39:20;;;;;;;27.38;19.33;;;6.60;99.90;;;;;;5021218;28;20108;-59
2022/03/25 01:41:47;;;;;;;25.70;19.42;;;6.60;99.90;;;;;;5009003;28;20481;-59
2022/03/25 01:44:14;;;;;;;27.83;19.10;;;6.60;99.90;;;;;;5001696;28;20053;-59
2022/03/25 01:46:42;;;;;;;27.50;19.25;;;6.50;99.90;;;;;;4999691;28;20160;-59
2022/03/25 01:49:09;;;;;;;27.85;20.23;;;6.50;99.90;;;;;;5001663;28;20121;-59
2022/03/25 01:51:37;;;;;;;28.35;20.23;;;6.40;99.90;;;;;;5002038;28;20157;-59
2022/03/25 01:54:10;;;;;;;30.00;19.50;;;6.40;99.90;;;;;;5002535;28;20477;-59
2022/03/25 01:56:37;;;;;;;29.98;20.52;;;6.40;99.90;;;;;;5002815;28;20135;-59
2022/03/25 01:59:04;;;;;;;29.63;20.70;;;6.30;99.90;;;;;;5002343;28;20133;-59
2022/03/25 02:01:31;;;;;;;27.73;19.83;;;6.30;99.90;;;;;;5001727;28;20042;-59
2022/03/25 02:03:58;;;;;;;24.67;18.92;;;6.40;99.90;;;;;;5006986;28;20448;-59
2022/03/25 02:06:25;;;;;;;29.88;20.85;;;6.40;99.90;;;;;;5013029;28;20136;-59
2022/03/25 02:08:52;;;;;;;26.83;18.77;;;6.40;99.90;;;;;;5017223;28;20320;-59
2022/03/25 02:11:19;;;;;;;29.13;19.98;;;6.40;99.90;;;;;;5014303;28;20080;-59
2022/03/25 02:13:46;;;;;;;26.40;19.17;;;6.40;99.90;;;;;;5002334;28;20069;-59
2022/03/25 02:16:13;;;;;;;28.83;20.90;;;6.40;99.90;;;;;;5019646;28;20442;-60
2022/03/25 02:18:40;;;;;;;28.77;19.23;;;6.30;99.90;;;;;;5008881;28;20080;-59
2022/03/25 02:21:06;;;;;;;28.10;20.08;;;6.20;99.90;;;;;;5019922;28;20131;-59
2022/03/25 02:23:33;;;;;;;28.55;20.85;;;6.20;99.90;;;;;;5020044;28;20077;-58
2022/03/25 02:26:00;;;;;;;29.17;19.30;;;6.10;99.90;;;;;;5018623;28;20140;-59
2022/03/25 02:28:27;;;;;;;25.52;19.02;;;6.00;99.90;;;;;;5019173;28;20069;-59
2022/03/25 02:30:53;;;;;;;25.98;19.52;;;6.00;99.90;;;;;;5015095;28;20173;-59
2022/03/25 02:33:20;;;;;;;27.85;20.15;;;5.90;99.90;;;;;;5034006;28;20138;-59
2022/03/25 02:35:50;;;;;;;25.90;18.42;;;5.90;99.90;;;;;;5021560;28;20037;-59
2022/03/25 02:38:22;;;;;;;25.98;18.95;;;5.80;99.90;;;;;;5021724;28;20142;-59
2022/03/25 02:40:49;;;;;;;29.00;20.63;;;5.80;99.90;;;;;;5012935;28;20489;-59
2022/03/25 02:43:16;;;;;;;27.58;18.67;;;5.80;99.90;;;;;;5001773;28;20089;-59
2022/03/25 02:45:43;;;;;;;25.98;18.88;;;5.80;99.90;;;;;;5003663;28;20073;-59
2022/03/25 02:48:11;;;;;;;26.33;18.98;;;5.90;99.90;;;;;;5003635;28;20164;-59
2022/03/25 02:50:38;;;;;;;27.67;20.02;;;5.90;99.90;;;;;;5003173;28;20053;-59
2022/03/25 02:53:05;;;;;;;28.52;18.33;;;5.80;99.90;;;;;;5001627;28;20133;-59
2022/03/25 02:55:31;;;;;;;26.27;17.42;;;5.80;99.90;;;;;;5003366;28;20137;-59
2022/03/25 02:57:58;;;;;;;26.20;17.70;;;5.80;99.90;;;;;;5002070;28;20058;-59
2022/03/25 03:00:26;;;;;;;27.80;18.98;;;5.80;99.90;;;;;;5002335;28;20041;-59
2022/03/25 03:02:53;;;;;;;25.23;18.23;;;5.80;99.90;;;;;;5002992;28;20054;-59
2022/03/25 03:05:21;;;;;;;26.60;19.15;;;5.70;99.90;;;;;;5001036;28;20899;-59
2022/03/25 03:07:48;;;;;;;27.35;17.65;;;5.70;99.90;;;;;;5003354;28;20134;-59
2022/03/25 03:10:15;;;;;;;27.67;17.70;;;5.70;99.90;;;;;;5002906;28;20046;-58
2022/03/25 03:12:42;;;;;;;26.42;17.35;;;5.60;99.90;;;;;;5002378;28;20053;-59
2022/03/25 03:15:09;;;;;;;26.20;17.65;;;5.60;99.90;;;;;;5002890;28;20058;-59
2022/03/25 03:17:36;;;;;;;25.98;17.33;;;5.60;99.90;;;;;;5002003;28;20057;-59
2022/03/25 03:20:03;;;;;;;23.25;16.50;;;5.60;99.90;;;;;;5003028;28;20162;-59
2022/03/25 03:22:30;;;;;;;23.42;16.42;;;5.60;99.90;;;;;;5002885;28;20121;-59
2022/03/25 03:24:57;;;;;;;26.25;16.80;;;5.60;99.90;;;;;;5002998;28;20100;-59
2022/03/25 03:27:25;;;;;;;22.90;16.65;;;5.60;99.90;;;;;;5002907;28;20092;-59
2022/03/25 03:29:51;;;;;;;23.95;16.00;;;5.50;99.90;;;;;;5002871;28;20061;-59
2022/03/25 03:32:18;;;;;;;23.55;16.88;;;5.50;99.90;;;;;;5001448;28;20085;-59
2022/03/25 03:34:45;;;;;;;23.90;17.25;;;5.40;99.90;;;;;;5004807;28;20042;-59
2022/03/25 03:37:12;;;;;;;22.10;15.93;;;5.30;99.90;;;;;;5002798;28;20521;-59
2022/03/25 03:39:38;;;;;;;22.92;15.70;;;5.30;99.90;;;;;;5003163;28;20093;-59
2022/03/25 03:42:05;;;;;;;22.95;16.58;;;5.30;99.90;;;;;;5020982;28;20140;-59
2022/03/25 03:44:32;;;;;;;21.08;15.45;;;5.30;99.90;;;;;;5006337;28;20057;-59
2022/03/25 03:46:59;;;;;;;23.67;16.45;;;5.20;99.90;;;;;;5001688;28;20544;-59
2022/03/25 03:49:26;;;;;;;22.65;15.95;;;5.20;99.90;;;;;;5005799;28;20571;-59
2022/03/25 03:51:53;;;;;;;22.15;16.33;;;5.20;99.90;;;;;;5021830;28;20049;-59
2022/03/25 03:54:19;;;;;;;23.00;16.23;;;5.20;99.90;;;;;;5020702;28;20120;-59
2022/03/25 03:56:46;;;;;;;23.27;16.95;;;5.20;99.90;;;;;;5019682;28;20464;-58
2022/03/25 03:59:13;;;;;;;23.75;17.42;;;5.10;99.90;;;;;;5019489;28;20061;-59
2022/03/25 04:01:40;;;;;;;23.73;16.40;;;5.10;99.90;;;;;;5020602;28;20052;-59
2022/03/25 04:04:07;;;;;;;23.35;16.15;;;5.10;99.90;;;;;;5016236;28;20068;-59
2022/03/25 04:06:34;;;;;;;21.92;15.57;;;5.10;99.90;;;;;;5010386;28;20175;-59
2022/03/25 04:09:00;;;;;;;24.80;16.77;;;5.10;99.90;;;;;;5010266;28;20165;-59
2022/03/25 04:11:27;;;;;;;22.95;16.67;;;5.00;99.90;;;;;;5024406;28;20081;-61
2022/03/25 04:13:54;;;;;;;22.70;16.02;;;5.00;99.90;;;;;;5020916;28;20142;-60
2022/03/25 04:16:22;;;;;;;26.17;17.45;;;5.00;99.90;;;;;;5024230;28;20580;-59
2022/03/25 04:18:49;;;;;;;24.55;17.10;;;4.90;99.90;;;;;;5024674;28;20141;-59
2022/03/25 04:21:15;;;;;;;22.38;15.25;;;4.90;99.90;;;;;;5009493;28;20231;-59
2022/03/25 04:23:42;;;;;;;23.95;16.08;;;4.90;99.90;;;;;;5017116;28;20076;-58
2022/03/25 04:26:09;;;;;;;23.40;16.58;;;4.90;99.90;;;;;;5024770;28;20144;-59
2022/03/25 04:28:36;;;;;;;23.48;16.05;;;4.80;99.90;;;;;;5016823;28;20148;-60
2022/03/25 04:31:03;;;;;;;21.73;15.70;;;4.80;99.90;;;;;;5015409;28;20057;-60
2022/03/25 04:33:31;;;;;;;22.70;14.98;;;4.80;99.90;;;;;;5018489;28;20049;-59
2022/03/25 04:35:58;;;;;;;23.58;16.65;;;4.80;99.90;;;;;;5022909;28;20540;-59
2022/03/25 04:38:25;;;;;;;22.80;16.92;;;4.80;99.90;;;;;;5010143;28;20133;-59
2022/03/25 04:40:51;;;;;;;21.77;15.30;;;4.70;99.90;;;;;;5009903;28;20077;-59
2022/03/25 04:43:18;;;;;;;22.83;16.13;;;4.70;99.90;;;;;;5005438;28;20074;-60
2022/03/25 04:45:45;;;;;;;23.88;16.63;;;4.70;99.90;;;;;;5021779;28;20136;-59
2022/03/25 04:48:12;;;;;;;23.58;16.33;;;4.70;99.90;;;;;;5024399;28;20045;-59
2022/03/25 04:50:39;;;;;;;21.88;15.07;;;4.70;99.90;;;;;;5005823;28;20069;-59
2022/03/25 04:53:06;;;;;;;24.65;15.70;;;4.70;99.90;;;;;;5005323;28;20046;-59
2022/03/25 04:55:33;;;;;;;25.20;16.15;;;4.70;99.90;;;;;;5005725;28;20528;-59
2022/03/25 04:58:00;;;;;;;25.42;16.83;;;4.60;99.90;;;;;;5005700;28;20570;-59
2022/03/25 05:00:29;;;;;;;23.88;15.80;;;4.60;99.90;;;;;;5005238;28;20053;-60
2022/03/25 05:02:56;;;;;;;22.17;15.32;;;4.60;99.90;;;;;;5003347;28;20057;-59
2022/03/25 05:05:23;;;;;;;20.73;14.60;;;4.60;99.90;;;;;;5005895;28;20477;-58
2022/03/25 05:07:50;;;;;;;23.10;15.20;;;4.50;99.90;;;;;;5012161;28;20156;-58
2022/03/25 05:10:17;;;;;;;23.80;16.48;;;4.50;99.90;;;;;;5005466;28;20492;-58
2022/03/25 05:12:44;;;;;;;24.85;16.83;;;4.50;99.90;;;;;;5005475;28;20073;-58
2022/03/25 05:15:11;;;;;;;23.25;16.27;;;4.40;99.90;;;;;;5006010;28;20124;-58
2022/03/25 05:17:45;;;;;;;24.02;15.23;;;4.50;99.90;;;;;;5004391;28;20049;-58
2022/03/25 05:20:12;;;;;;;23.35;15.20;;;4.40;99.90;;;;;;5018729;28;20046;-58
2022/03/25 05:22:39;;;;;;;26.35;17.00;;;4.40;99.90;;;;;;5021874;28;20053;-58
2022/03/25 05:25:07;;;;;;;23.38;15.68;;;4.40;99.90;;;;;;5013780;28;20145;-58
2022/03/25 05:27:53;;;;;;;23.17;15.93;;;4.30;99.90;;;;;;5012897;28;20080;-58
2022/03/25 05:30:21;;;;;;;25.05;15.35;;;4.40;99.90;;;;;;5009970;28;20129;-59
2022/03/25 05:32:48;;;;;;;23.00;16.17;;;4.30;99.90;;;;;;5006111;28;20120;-59
2022/03/25 05:35:18;;;;;;;24.40;15.63;;;4.30;99.90;;;;;;5002933;28;20038;-59
2022/03/25 05:37:44;;;;;;;23.98;16.42;;;4.30;99.90;;;;;;5004737;28;20123;-58
2022/03/25 05:40:12;;;;;;;22.80;15.38;;;4.30;99.90;;;;;;5007747;28;20468;-59
2022/03/25 05:42:39;;;;;;;26.23;16.83;;;4.30;99.90;;;;;;5004496;28;20050;-59
2022/03/25 05:45:06;;;;;;;21.95;15.68;;;4.30;99.90;;;;;;5004175;28;20132;-58
2022/03/25 05:47:34;;;;;;;23.48;15.98;;;4.20;99.90;;;;;;5005790;28;20405;-58
2022/03/25 05:50:02;;;;;;;21.23;15.23;;;4.20;99.90;;;;;;5002925;28;20392;-58
2022/03/25 05:52:28;;;;;;;24.83;16.20;;;4.20;99.90;;;;;;5004834;28;20099;-58
2022/03/25 05:54:55;;;;;;;22.67;15.52;;;4.10;99.90;;;;;;5004168;28;20140;-58
2022/03/25 05:57:22;;;;;;;22.88;16.27;;;4.10;99.90;;;;;;5018177;28;20095;-59
2022/03/25 05:59:49;;;;;;;24.92;16.75;;;4.00;99.90;;;;;;5022348;28;20073;-59
2022/03/25 06:02:16;;;;;;;23.38;16.80;;;4.10;99.90;;;;;;5019221;28;20137;-61
2022/03/25 06:04:43;;;;;;;26.90;15.40;;;4.00;99.90;;;;;;5011084;28;20118;-58
2022/03/25 06:07:12;;;;;;;24.23;16.00;;;4.00;99.90;;;;;;5022077;28;20935;-59
2022/03/25 06:09:39;;;;;;;24.08;16.40;;;4.00;99.90;;;;;;5023007;28;20100;-58
2022/03/25 06:12:06;;;;;;;23.40;16.02;;;4.00;99.90;;;;;;5021413;28;20099;-58
2022/03/25 06:14:33;;;;;;;24.92;16.55;;;4.00;99.90;;;;;;5015652;28;20080;-59
2022/03/25 06:17:00;;;;;;;26.30;17.33;;;4.00;99.90;;;;;;5020717;28;20619;-58
2022/03/25 06:19:26;;;;;;;31.83;20.02;;;4.00;99.90;;;;;;5012230;28;20133;-62
2022/03/25 06:21:54;;;;;;;28.70;19.63;;;4.10;99.90;;;;;;5012627;28;20527;-58
2022/03/25 06:24:21;;;;;;;29.52;19.25;;;4.20;99.90;;;;;;5009882;28;20497;-59
2022/03/25 06:26:48;;;;;;;30.05;19.05;;;4.30;99.90;;;;;;5011312;28;20396;-59
2022/03/25 06:29:14;;;;;;;27.13;20.15;;;4.30;99.90;;;;;;5014727;28;20053;-58
2022/03/25 06:31:41;;;;;;;29.83;18.55;;;4.40;99.90;;;;;;5019446;28;20076;-59
2022/03/25 06:34:08;;;;;;;27.40;17.95;;;4.60;99.90;;;;;;5020321;28;20625;-58
2022/03/25 06:36:35;;;;;;;24.58;16.40;;;4.60;99.90;;;;;;5022254;28;20599;-59
2022/03/25 06:39:01;;;;;;;26.33;17.13;;;4.70;99.90;;;;;;5020088;28;20131;-59
2022/03/25 06:41:28;;;;;;;23.10;16.95;;;4.70;99.90;;;;;;5018127;28;20077;-59
2022/03/25 06:43:56;;;;;;;23.40;16.83;;;4.70;99.90;;;;;;5011755;28;20133;-58
2022/03/25 06:46:23;;;;;;;21.60;15.88;;;4.70;99.90;;;;;;5010690;28;20081;-59
2022/03/25 06:48:50;;;;;;;21.77;16.05;;;4.70;99.90;;;;;;5016129;28;20468;-58
2022/03/25 06:51:18;;;;;;;22.73;15.93;;;4.80;99.90;;;;;;4991808;28;20141;-58
2022/03/25 06:53:45;;;;;;;20.33;15.30;;;4.80;99.90;;;;;;5007992;28;20095;-60
2022/03/25 06:56:12;;;;;;;21.60;15.55;;;4.80;99.90;;;;;;4999308;28;20141;-58
2022/03/25 06:58:39;;;;;;;20.98;14.98;;;4.90;99.90;;;;;;5004417;28;20346;-58
2022/03/25 07:01:06;;;;;;;21.08;15.35;;;5.00;99.90;;;;;;5009949;28;20256;-59
2022/03/25 07:03:33;;;;;;;18.83;13.77;;;4.90;99.90;;;;;;4997349;28;20069;-58
2022/03/25 07:06:00;;;;;;;18.27;13.88;;;5.00;99.90;;;;;;5009414;28;20114;-60
2022/03/25 07:08:28;;;;;;;18.33;13.80;;;5.00;99.90;;;;;;4996332;28;20053;-59
2022/03/25 07:10:56;;;;;;;17.55;12.95;;;5.10;99.90;;;;;;5007954;28;20180;-59
2022/03/25 07:13:23;;;;;;;17.55;13.93;;;5.20;99.90;;;;;;5003700;28;20136;-59
2022/03/25 07:15:49;;;;;;;19.33;14.52;;;5.20;99.90;;;;;;5015528;28;20081;-59
2022/03/25 07:18:16;;;;;;;19.40;13.25;;;5.20;99.90;;;;;;5015841;28;20175;-60
2022/03/25 07:20:43;;;;;;;18.67;14.55;;;5.30;99.90;;;;;;5007552;28;20143;-60
2022/03/25 07:23:14;;;;;;;20.20;13.50;;;5.30;99.90;;;;;;5010485;28;20081;-60
2022/03/25 07:25:41;;;;;;;16.77;13.75;;;5.40;99.90;;;;;;5001299;28;20140;-60
2022/03/25 07:28:08;;;;;;;18.08;13.73;;;5.50;99.90;;;;;;4999237;28;20053;-60
2022/03/25 07:30:37;;;;;;;18.55;13.98;;;5.60;99.90;;;;;;5017317;28;20136;-60
2022/03/25 07:33:03;;;;;;;16.67;13.20;;;5.70;99.90;;;;;;5016357;28;20112;-64
2022/03/25 07:35:31;;;;;;;16.45;12.73;;;5.90;99.90;;;;;;5017028;28;20453;-60
2022/03/25 07:37:57;;;;;;;17.02;13.23;;;5.90;99.90;;;;;;5017590;28;20626;-60
2022/03/25 07:40:24;;;;;;;18.05;15.00;;;6.00;99.90;;;;;;5014151;28;20397;-60
2022/03/25 07:42:51;;;;;;;17.90;14.13;;;6.00;99.90;;;;;;4998376;28;20256;-60
2022/03/25 07:45:18;;;;;;;17.58;13.10;;;6.10;99.90;;;;;;4999632;28;20127;-60
2022/03/25 07:47:46;;;;;;;18.80;14.45;;;6.10;99.90;;;;;;5005577;28;20136;-58
2022/03/25 07:50:15;;;;;;;20.05;14.95;;;6.10;99.90;;;;;;5009172;28;20078;-60
2022/03/25 07:52:42;;;;;;;19.33;14.68;;;6.10;99.90;;;;;;5005197;28;20085;-60
2022/03/25 07:55:09;;;;;;;16.90;13.20;;;6.10;99.90;;;;;;5014363;28;20091;-60
2022/03/25 07:57:40;;;;;;;19.95;14.07;;;6.10;99.90;;;;;;5011635;28;20080;-61
2022/03/25 08:00:11;;;;;;;19.33;14.52;;;6.30;99.90;;;;;;5021810;28;20123;-61
2022/03/25 08:02:43;;;;;;;19.00;15.13;;;6.30;99.90;;;;;;5003997;28;20058;-60
2022/03/25 08:05:10;;;;;;;19.00;13.75;;;6.30;99.90;;;;;;5005513;28;20112;-61
2022/03/25 08:07:48;;;;;;;18.25;14.32;;;6.40;99.90;;;;;;5009555;28;20050;-60
2022/03/25 08:10:17;;;;;;;19.10;14.30;;;6.50;99.90;;;;;;5007901;28;20041;-60
2022/03/25 08:12:44;;;;;;;22.10;15.88;;;6.60;99.90;;;;;;5008461;28;20085;-61
2022/03/25 08:15:13;;;;;;;19.38;15.50;;;6.60;99.90;;;;;;5002834;28;20100;-60
2022/03/25 08:18:01;;;;;;;18.88;15.05;;;6.70;99.90;;;;;;5021805;28;20049;-60
2022/03/25 08:20:37;;;;;;;19.77;15.05;;;6.80;99.90;;;;;;5021444;28;20072;-60
2022/03/25 08:23:05;;;;;;;22.17;16.88;;;6.90;99.90;;;;;;5021738;28;20437;-60
2022/03/25 08:28:20;;;;;;;22.38;16.80;;;7.10;99.90;;;;;;5013038;28;20238;-60
2022/03/25 08:30:48;;;;;;;24.15;18.98;;;7.30;99.90;;;;;;5001925;28;20304;-60
2022/03/25 08:33:16;;;;;;;25.10;17.88;;;7.40;99.90;;;;;;5000867;28;20157;-60
2022/03/25 08:35:43;;;;;;;25.05;18.85;;;7.50;99.90;;;;;;5001405;28;20053;-60
2022/03/25 08:38:10;;;;;;;25.45;19.73;;;7.60;99.90;;;;;;4989423;28;20456;-60
2022/03/25 08:40:37;;;;;;;27.25;21.55;;;7.80;99.90;;;;;;5018678;28;20057;-60
2022/03/25 08:43:24;;;;;;;31.45;22.95;;;7.90;99.90;;;;;;5020080;28;20059;-60
2022/03/25 08:45:51;;;;;;;29.45;22.83;;;8.00;99.90;;;;;;5010896;28;20232;-60
2022/03/25 08:48:18;;;;;;;29.35;23.02;;;8.20;99.90;;;;;;5018544;28;20492;-60
2022/03/25 08:50:44;;;;;;;31.52;24.08;;;8.30;99.90;;;;;;5016469;28;20122;-60
2022/03/25 08:53:12;;;;;;;37.10;27.38;;;8.50;99.90;;;;;;5008532;28;20428;-60
2022/03/25 08:55:39;;;;;;;35.83;27.42;;;8.60;99.90;;;;;;5020750;28;20042;-60
2022/03/25 08:58:05;;;;;;;36.10;27.05;;;8.70;99.90;;;;;;5018634;28;20640;-60
2022/03/25 09:00:32;;;;;;;37.40;29.30;;;8.90;99.90;;;;;;5006109;28;20132;-60
2022/03/25 09:02:59;;;;;;;32.85;26.13;;;8.90;99.90;;;;;;5008715;28;20419;-60
2022/03/25 09:05:26;;;;;;;34.53;27.23;;;9.10;99.90;;;;;;5008517;28;20079;-60
2022/03/25 09:07:53;;;;;;;35.83;26.70;;;9.20;99.90;;;;;;5006275;28;20053;-60
2022/03/25 09:10:20;;;;;;;36.60;27.65;;;9.40;99.90;;;;;;5021988;28;20166;-60
2022/03/25 09:12:47;;;;;;;34.47;25.40;;;9.50;99.90;;;;;;5013745;28;20057;-60
2022/03/25 09:15:14;;;;;;;33.67;26.08;;;9.60;99.90;;;;;;5006904;28;20049;-60
2022/03/25 09:17:45;;;;;;;35.25;24.88;;;9.80;99.90;;;;;;5008727;28;20434;-60
2022/03/25 09:20:12;;;;;;;34.97;24.55;;;9.90;99.90;;;;;;5011747;28;20060;-60
2022/03/25 09:22:39;;;;;;;33.53;25.95;;;10.00;99.90;;;;;;5009292;28;20053;-60
2022/03/25 09:25:09;;;;;;;33.40;25.05;;;10.10;99.90;;;;;;5000605;28;20589;-60
2022/03/25 09:27:36;;;;;;;35.65;26.25;;;10.20;99.90;;;;;;5009349;28;20552;-60
2022/03/25 09:30:04;;;;;;;33.33;25.25;;;10.40;99.90;;;;;;5008722;28;20085;-60
2022/03/25 09:32:51;;;;;;;31.42;25.25;;;10.50;99.90;;;;;;5012436;28;20058;-61
2022/03/25 09:35:19;;;;;;;33.65;25.90;;;10.60;99.90;;;;;;5009011;28;20049;-60
2022/03/25 09:37:47;;;;;;;35.05;26.77;;;10.70;99.90;;;;;;5007778;28;20510;-60
2022/03/25 09:40:18;;;;;;;34.97;26.17;;;10.90;99.90;;;;;;5015060;28;20092;-61
2022/03/25 09:42:45;;;;;;;34.03;26.98;;;11.00;99.90;;;;;;5011069;28;20461;-60
2022/03/25 09:45:13;;;;;;;36.78;27.38;;;11.10;99.90;;;;;;4983769;28;20152;-60
2022/03/25 09:47:40;;;;;;;30.30;24.63;;;11.10;99.90;;;;;;5001688;28;20172;-60
2022/03/25 09:50:09;;;;;;;30.52;24.05;;;11.20;99.90;;;;;;5018698;28;20476;-60
2022/03/25 09:52:36;;;;;;;28.48;22.88;;;11.40;99.90;;;;;;5018289;28;20502;-60
2022/03/25 09:55:23;;;;;;;29.67;23.23;;;11.50;99.90;;;;;;5007743;28;20042;-60
2022/03/25 09:57:50;;;;;;;29.55;24.23;;;11.60;99.90;;;;;;5007455;28;20143;-60
2022/03/25 10:00:18;;;;;;;29.02;23.52;;;11.60;99.90;;;;;;5008521;28;20560;-60
2022/03/25 10:02:45;;;;;;;32.03;24.90;;;11.70;99.90;;;;;;4989764;28;20053;-60
2022/03/25 10:05:16;;;;;;;34.80;27.38;;;11.80;99.90;;;;;;5004308;28;20073;-60
2022/03/25 10:07:45;;;;;;;32.33;24.98;;;11.80;99.90;;;;;;5013655;28;20115;-60
2022/03/25 10:10:15;;;;;;;29.88;25.05;;;11.90;99.90;;;;;;5000273;28;20153;-60
2022/03/25 10:12:44;;;;;;;30.45;23.88;;;12.00;99.90;;;;;;5018310;28;20530;-60
2022/03/25 10:15:25;;;;;;;32.10;25.02;;;12.10;99.90;;;;;;5000393;28;20419;-61
2022/03/25 10:17:59;;;;;;;31.50;24.10;;;12.20;99.90;;;;;;5011010;28;20088;-60
2022/03/25 10:20:29;;;;;;;;;;;12.40;99.90;;;;;;5018884;28;20436;-60
2022/03/25 10:23:16;;;;;;;32.28;23.95;;;12.40;99.90;;;;;;5018598;28;20036;-61
2022/03/25 10:25:55;;;;;;;29.80;24.00;;;12.50;99.90;;;;;;5017346;28;20107;-60
2022/03/25 10:28:44;;;;;;;32.33;24.05;;;12.60;99.90;;;;;;5007896;28;20457;-61
2022/03/25 10:31:14;;;;;;;32.90;26.30;;;12.70;99.90;;;;;;5017437;28;20065;-60
2022/03/25 10:33:59;;;;;;;29.00;25.08;;;12.80;99.90;;;;;;4970446;28;1219620;-60
2022/03/25 10:36:26;;;;;;;32.08;25.30;;;13.00;99.90;;;;;;4999443;28;20093;-60
2022/03/25 10:39:11;;;;;;;33.58;25.38;;;13.10;99.90;;;;;;4999841;28;20124;-60
2022/03/25 10:41:42;;;;;;;27.90;23.30;;;13.20;99.90;;;;;;4998456;28;20054;-60
2022/03/25 10:44:10;;;;;;;30.88;23.75;;;13.40;99.90;;;;;;4987705;28;20249;-60
2022/03/25 10:46:49;;;;;;;30.05;23.15;;;13.50;99.90;;;;;;5013040;28;20060;-60
2022/03/25 10:49:17;;;;;;;39.22;28.70;;;13.60;99.90;;;;;;5018248;28;20775;-60
2022/03/25 10:51:55;;;;;;;36.13;26.83;;;13.70;99.90;;;;;;5005644;28;20137;-60
2022/03/25 10:54:23;;;;;;;30.10;24.83;;;13.70;99.90;;;;;;5016941;28;20049;-60
2022/03/25 10:56:58;;;;;;;31.00;24.65;;;13.70;99.90;;;;;;5019115;28;20049;-60
2022/03/25 10:59:34;;;;;;;30.88;23.23;;;13.80;99.90;;;;;;5016203;28;20131;-60
2022/03/25 11:02:06;;;;;;;27.05;21.38;;;13.90;99.90;;;;;;5014176;28;20419;-60
2022/03/25 11:04:34;;;;;;;29.52;24.02;;;14.00;99.90;;;;;;5014825;28;20460;-61
2022/03/25 11:07:01;;;;;;;27.50;21.92;;;14.20;99.90;;;;;;5013903;28;20057;-61
2022/03/25 11:09:28;;;;;;;28.92;20.60;;;14.30;99.90;;;;;;5006975;28;20614;-60
2022/03/25 11:11:56;;;;;;;25.75;20.45;;;14.40;99.90;;;;;;5014567;28;20100;-60
2022/03/25 11:14:23;;;;;;;24.65;20.73;;;14.50;99.90;;;;;;4998474;28;20421;-61
2022/03/25 11:16:58;;;;;;;26.38;19.80;;;14.60;99.90;;;;;;5000341;28;20057;-60
2022/03/25 11:19:25;;;;;;;26.75;20.42;;;14.70;99.90;;;;;;5010887;28;20080;-60
2022/03/25 11:21:54;;;;;;;26.92;18.70;;;14.80;99.90;;;;;;4998402;28;20585;-60
2022/03/25 11:24:37;;;;;;;21.45;17.50;;;15.00;99.90;;;;;;5002225;28;20058;-64
2022/03/25 11:27:07;;;;;;;22.67;17.60;;;15.20;99.90;;;;;;5013362;28;20111;-60
2022/03/25 11:29:34;;;;;;;21.08;17.13;;;15.40;99.90;;;;;;5011815;28;20133;-61
2022/03/25 11:32:12;;;;;;;24.52;19.98;;;15.60;99.90;;;;;;5007498;28;20559;-61
2022/03/25 11:34:54;;;;;;;26.30;19.58;;;15.70;99.60;;;;;;5014418;28;20133;-60
2022/03/25 11:37:25;;;;;;;25.75;19.70;;;15.80;98.80;;;;;;5002615;28;20512;-60
2022/03/25 11:40:22;;;;;;;20.10;16.05;;;16.00;98.30;;;;;;5005331;28;20149;-60
2022/03/25 11:42:55;;;;;;;17.75;14.40;;;16.30;97.10;;;;;;5009277;28;20524;-61
2022/03/25 11:45:22;;;;;;;22.05;16.08;;;16.60;97.00;;;;;;5018237;28;20069;-60
2022/03/25 11:48:00;;;;;;;20.23;14.88;;;16.70;95.90;;;;;;5016067;28;20045;-60
2022/03/25 11:50:34;;;;;;;19.25;15.60;;;16.80;95.80;;;;;;5004639;28;20120;-60
2022/03/25 11:53:10;;;;;;;20.52;17.10;;;17.00;95.20;;;;;;4998528;28;20223;-61
2022/03/25 11:55:52;;;;;;;19.10;16.65;;;17.20;94.40;;;;;;5015748;28;20589;-60
2022/03/25 11:58:18;;;;;;;18.40;14.82;;;17.40;93.80;;;;;;5004067;28;20133;-60
2022/03/25 12:01:15;;;;;;;18.88;14.88;;;17.60;93.00;;;;;;5013433;28;20551;-61
2022/03/25 12:03:53;;;;;;;17.98;15.85;;;17.90;93.00;;;;;;5025851;28;20152;-60
2022/03/25 12:06:28;;;;;;;17.13;14.98;;;18.20;91.40;;;;;;5005519;28;20053;-60
2022/03/25 12:09:03;;;;;;;15.82;14.10;;;18.30;91.60;;;;;;5003112;28;20256;-61
2022/03/25 12:12:05;;;;;;;18.27;14.98;;;18.60;90.80;;;;;;5007039;28;20615;-61
2022/03/25 12:14:32;;;;;;;17.70;15.20;;;18.90;89.90;;;;;;4975135;28;20112;-60
2022/03/25 12:17:04;;;;;;;18.08;14.70;;;18.90;87.60;;;;;;5006080;28;20053;-61
2022/03/25 12:19:46;;;;;;;19.23;16.98;;;19.10;88.00;;;;;;5016988;28;20144;-60
2022/03/25 12:22:18;;;;;;;18.98;16.25;;;19.00;85.50;;;;;;5001015;28;20061;-61
2022/03/25 12:24:50;;;;;;;17.73;15.57;;;18.80;85.00;;;;;;5003854;28;20169;-60
2022/03/25 12:27:17;;;;;;;18.17;15.63;;;19.10;83.90;;;;;;5001816;28;20078;-61
2022/03/25 12:29:48;;;;;;;16.92;15.13;;;19.20;84.00;;;;;;5016754;28;20053;-61
2022/03/25 12:32:16;;;;;;;18.75;15.32;;;19.50;83.70;;;;;;5009990;28;20097;-61
2022/03/25 12:35:11;;;;;;;16.98;13.82;;;19.50;81.90;;;;;;5008578;28;20524;-60
2022/03/25 12:37:53;;;;;;;14.98;13.05;;;19.90;80.90;;;;;;5006330;28;20045;-61
2022/03/25 12:40:29;;;;;;;15.23;12.65;;;20.20;80.30;;;;;;5015968;28;20057;-61
2022/03/25 12:43:08;;;;;;;15.98;14.27;;;20.50;79.10;;;;;;5010647;28;20089;-61
2022/03/25 12:45:37;;;;;;;14.02;12.25;;;20.60;77.90;;;;;;5011217;28;20052;-61
2022/03/25 12:48:11;;;;;;;16.77;14.27;;;20.80;77.00;;;;;;5001043;28;20060;-61